Overview Statistics Trail Chart Weather Telemetry Raw packets
 

This is the latest recevied telemetry packets stored in our database for station/object DK7SB-10. If no packets are shown the sender has not sent any telemetry packets the latest 10 day(s).

Telemetry packets is used to share measurements like repeteater parameters, battery voltage, radiation readings (or any other measurements).

<< 1 2 3 4 >>
Time Press* Temp.in* Hum* QNH* Temp.out*
1788600690 951.3 hPa 25.5 C deg 0 % 1024.6 hPa 0 C deg
1788600684 951.3 hPa 25.5 C deg 0 % 1024.6 hPa 0 C deg
1788598854 951 hPa 25.4 C deg 0 % 1024.3 hPa 0 C deg
1788597024 951 hPa 25.4 C deg 0 % 1024.3 hPa 0 C deg
1788595197 950.9 hPa 25.4 C deg 0 % 1024.2 hPa 0 C deg
1788595194 950.9 hPa 25.4 C deg 0 % 1024.2 hPa 0 C deg
1788593368 950.2 hPa 25.3 C deg 0 % 1023.5 hPa 0 C deg
1788593364 950.2 hPa 25.3 C deg 0 % 1023.5 hPa 0 C deg
1788591538 950.3 hPa 25.3 C deg 0 % 1023.6 hPa 0 C deg
1788591534 950.3 hPa 25.3 C deg 0 % 1023.6 hPa 0 C deg
1788589706 950.2 hPa 25.5 C deg 0 % 1023.5 hPa 0 C deg
1788589704 950.2 hPa 25.5 C deg 0 % 1023.5 hPa 0 C deg
1788587874 949.5 hPa 25.7 C deg 0 % 1022.6 hPa 0 C deg
1788586044 949.7 hPa 25.7 C deg 0 % 1022.9 hPa 0 C deg
1788584214 949.6 hPa 25 C deg 0 % 1023 hPa 0 C deg
1788582384 949.3 hPa 25.6 C deg 0 % 1022.4 hPa 0 C deg
1788580554 948.5 hPa 26.5 C deg 0 % 1021.3 hPa 0 C deg
1788578724 947.8 hPa 27.2 C deg 0 % 1020.4 hPa 0 C deg
1788576896 947.3 hPa 27.7 C deg 0 % 1019.7 hPa 0 C deg
1788576894 947.3 hPa 27.7 C deg 0 % 1019.7 hPa 0 C deg
1788575068 946.6 hPa 28.7 C deg 0 % 1018.8 hPa 0 C deg
1788575064 946.6 hPa 28.7 C deg 0 % 1018.8 hPa 0 C deg
1788573235 946.3 hPa 29 C deg 0 % 1018.4 hPa 0 C deg
1788573233 946.3 hPa 29 C deg 0 % 1018.4 hPa 0 C deg
1788571409 946.3 hPa 29.1 C deg 0 % 1018.4 hPa 0 C deg
*Used Equation Coefficients:
Press: 0, 1, 0
Temp.in: 0, 1, 0
Hum: 0, 1, 0
QNH: 0, 1, 0
Temp.out: 0, 1, 0

  • The parameter names for the analog channels will be Value1, Value2, Value3 (up to Value5) if station has not sent a PARAM-packet that specifies the parameter names for each analog channel.
  • Each analog value is a decimal number between 000 and 255 (according to APRS specifications). The receiver use the telemetry equation coefficientsto to restore the original sensor values. If no EQNS-packet with equation coefficients is sent we will show the values as is (this corresponds to the equation coefficients a=0, b=1 and c=0).
    The sent equation coefficients is used in the equation: a * value2 + b * value + c.
  • The units for the analog values will not be shown if station has not sent a UNIT-packet specifying what unit's to use.
  • The parameter names for the digital bits will be Bit1, Bit2, Bit3 (up to Bit8) if station has not sent a PARAM-packet that specifies the parameter names for each digital bit.
  • All bit labels will be named "On" if station has not sent a UNIT-packet that specifies the label of each bit.
  • A bit is considered to be On when the bit is 1 if station has not sent a BITS-packet that specifies another "Bit sense" (a BITS-packet specify the state of the bits that match the BIT labels)